createdAt,value
2022-08-19T00:00:22.283Z,22.73
2022-08-19T00:02:55.206Z,22.73
2022-08-19T00:05:48.759Z,22.72
2022-08-19T00:08:21.265Z,22.71
2022-08-19T00:10:54.642Z,22.67
2022-08-19T00:13:25.574Z,22.63
2022-08-19T00:18:39.645Z,22.61
2022-08-19T00:21:13.229Z,22.59
2022-08-19T00:23:45.302Z,22.58
2022-08-19T00:26:17.380Z,22.55
2022-08-19T00:28:51.754Z,22.52
2022-08-19T00:31:23.368Z,22.51
2022-08-19T00:33:53.398Z,22.50
2022-08-19T00:36:25.644Z,22.47
2022-08-19T00:38:58.800Z,22.44
2022-08-19T00:44:26.946Z,22.39
2022-08-19T00:47:03.028Z,22.36
2022-08-19T00:49:36.803Z,22.34
2022-08-19T00:52:18.629Z,22.31
2022-08-19T00:55:00.140Z,22.30
2022-08-19T00:57:36.536Z,22.27
2022-08-19T01:00:14.934Z,22.26
2022-08-19T01:03:07.935Z,22.26
2022-08-19T01:05:40.016Z,22.26
2022-08-19T01:08:29.688Z,22.25
2022-08-19T01:11:13.337Z,22.24
2022-08-19T01:13:49.769Z,22.26
2022-08-19T01:16:24.585Z,22.25
2022-08-19T01:18:58.354Z,22.23
2022-08-19T01:21:35.697Z,22.20
2022-08-19T01:24:14.507Z,22.17
2022-08-19T01:26:46.882Z,22.15
2022-08-19T01:29:25.808Z,22.16
2022-08-19T01:31:56.508Z,22.16
2022-08-19T01:34:31.608Z,22.14
2022-08-19T01:37:05.600Z,22.12
2022-08-19T01:39:42.679Z,22.11
2022-08-19T01:42:13.474Z,22.10
2022-08-19T01:44:42.186Z,22.11
2022-08-19T01:47:11.126Z,22.10
2022-08-19T01:49:39.592Z,22.09
2022-08-19T01:52:07.867Z,22.08
2022-08-19T01:54:37.142Z,22.03
2022-08-19T01:57:08.970Z,22.00
2022-08-19T01:59:37.623Z,21.96
2022-08-19T02:02:08.468Z,21.94
2022-08-19T02:04:36.166Z,21.94
2022-08-19T02:07:04.061Z,21.92
2022-08-19T02:09:32.617Z,21.91
2022-08-19T02:12:01.800Z,21.90
2022-08-19T02:14:29.555Z,21.89
2022-08-19T02:16:57.288Z,21.87
2022-08-19T02:19:24.911Z,21.86
2022-08-19T02:21:52.570Z,21.85
2022-08-19T02:24:20.174Z,21.81
2022-08-19T02:26:47.853Z,21.81
2022-08-19T02:29:16.938Z,21.81
2022-08-19T02:31:44.738Z,21.81
2022-08-19T02:34:12.329Z,21.80
2022-08-19T02:36:42.333Z,21.76
2022-08-19T02:39:09.729Z,21.71
2022-08-19T02:41:37.385Z,21.71
2022-08-19T02:44:29.791Z,21.70
2022-08-19T02:46:55.004Z,21.68
2022-08-19T02:49:22.571Z,21.66
2022-08-19T02:51:50.203Z,21.65
2022-08-19T02:54:17.951Z,21.64
2022-08-19T02:56:46.100Z,21.63
2022-08-19T02:59:13.905Z,21.60
2022-08-19T03:01:43.328Z,21.60
2022-08-19T03:04:15.219Z,21.58
2022-08-19T03:06:45.768Z,21.55
2022-08-19T03:09:14.985Z,21.52
2022-08-19T03:11:42.833Z,21.51
2022-08-19T03:14:11.578Z,21.49
2022-08-19T03:16:43.844Z,21.47
2022-08-19T03:19:12.792Z,21.44
2022-08-19T03:21:40.469Z,21.39
2022-08-19T03:24:10.600Z,21.34
2022-08-19T03:26:41.807Z,21.32
2022-08-19T03:29:11.688Z,21.30
2022-08-19T03:31:50.954Z,21.28
2022-08-19T03:34:27.232Z,21.26
2022-08-19T03:36:56.334Z,21.26
2022-08-19T03:39:24.890Z,21.25
2022-08-19T03:42:38.704Z,21.23
2022-08-19T03:44:43.276Z,21.22
2022-08-19T03:47:13.469Z,21.20
2022-08-19T03:49:42.480Z,21.20
2022-08-19T03:52:10.132Z,21.19
2022-08-19T03:54:39.036Z,21.18
2022-08-19T03:57:07.178Z,21.19
2022-08-19T03:59:38.148Z,21.19
2022-08-19T04:02:12.905Z,21.17
2022-08-19T04:04:44.438Z,21.15
2022-08-19T04:07:16.721Z,21.15
2022-08-19T04:09:44.832Z,21.14
2022-08-19T04:12:12.402Z,21.12
2022-08-19T04:14:40.417Z,21.11
2022-08-19T04:17:08.157Z,21.09
2022-08-19T04:19:39.520Z,21.09
2022-08-19T04:22:08.816Z,21.09
2022-08-19T04:24:37.191Z,21.08
2022-08-19T04:27:06.473Z,21.08
2022-08-19T04:29:35.729Z,21.07
2022-08-19T04:32:09.173Z,21.06
2022-08-19T04:35:01.460Z,21.05
2022-08-19T04:37:35.525Z,21.05
2022-08-19T04:40:23.246Z,21.05
2022-08-19T04:42:50.891Z,21.04
2022-08-19T04:45:18.500Z,21.01
2022-08-19T04:47:48.188Z,21.01
2022-08-19T04:50:27.094Z,21.01
2022-08-19T04:53:04.318Z,21.01
2022-08-19T04:58:07.649Z,21.04
2022-08-19T05:00:35.424Z,21.04
2022-08-19T05:03:07.709Z,21.02
2022-08-19T05:05:44.609Z,21.02
2022-08-19T05:08:31.209Z,21.02
2022-08-19T05:10:59.820Z,21.01
2022-08-19T05:13:29.067Z,21.01
2022-08-19T05:15:58.189Z,20.99
2022-08-19T05:18:44.569Z,20.99
2022-08-19T05:21:31.973Z,21.01
2022-08-19T05:24:00.929Z,21.02
2022-08-19T05:26:28.774Z,20.99
2022-08-19T05:28:57.125Z,20.99
2022-08-19T05:31:24.723Z,20.99
2022-08-19T05:33:52.388Z,20.98
2022-08-19T05:36:20.831Z,20.97
2022-08-19T05:38:50.523Z,20.99
2022-08-19T05:41:19.552Z,21.01
2022-08-19T05:43:47.260Z,20.98
2022-08-19T05:46:27.683Z,21.01
2022-08-19T05:48:57.527Z,20.99
2022-08-19T05:51:28.904Z,21.01
2022-08-19T05:53:57.125Z,20.99
2022-08-19T05:56:26.172Z,21.01
2022-08-19T05:58:55.119Z,21.02
2022-08-19T06:01:22.806Z,20.99
2022-08-19T06:03:50.338Z,20.98
2022-08-19T06:06:18.252Z,20.97
2022-08-19T06:08:49.446Z,20.97
2022-08-19T06:11:20.842Z,20.98
2022-08-19T06:13:59.826Z,20.98
2022-08-19T06:16:28.796Z,20.98
2022-08-19T06:18:58.837Z,20.98
2022-08-19T06:21:29.136Z,20.99
2022-08-19T06:23:57.902Z,20.98
2022-08-19T06:26:26.159Z,20.95
2022-08-19T06:28:55.467Z,20.96
2022-08-19T06:31:25.599Z,20.97
2022-08-19T06:33:53.273Z,20.99
2022-08-19T06:36:25.903Z,21.00
2022-08-19T06:38:53.524Z,21.02
2022-08-19T06:41:21.351Z,21.02
2022-08-19T06:43:49.858Z,21.02
2022-08-19T06:46:23.999Z,21.02
2022-08-19T06:48:54.334Z,21.03
2022-08-19T06:51:23.359Z,21.03
2022-08-19T06:53:54.617Z,21.01
2022-08-19T06:56:26.703Z,21.00
2022-08-19T06:58:54.228Z,20.98
2022-08-19T07:01:23.363Z,20.96
2022-08-19T07:03:51.011Z,20.95
2022-08-19T07:09:10.881Z,20.93
2022-08-19T07:11:39.835Z,20.93
2022-08-19T07:14:07.571Z,20.93
2022-08-19T07:16:49.751Z,20.92
2022-08-19T07:19:19.003Z,20.94
2022-08-19T07:21:47.450Z,20.94
2022-08-19T07:24:16.241Z,20.92
2022-08-19T07:26:45.700Z,20.89
2022-08-19T07:29:15.012Z,20.89
2022-08-19T07:31:43.663Z,20.89
2022-08-19T07:34:15.670Z,20.89
2022-08-19T07:36:45.520Z,20.87
2022-08-19T07:39:16.076Z,20.90
2022-08-19T07:41:44.222Z,20.90
2022-08-19T07:44:13.402Z,20.91
2022-08-19T07:46:46.482Z,20.90
2022-08-19T07:49:20.218Z,20.90
2022-08-19T07:51:49.489Z,20.89
2022-08-19T07:54:18.096Z,20.88
2022-08-19T07:56:45.762Z,20.86
2022-08-19T07:59:13.882Z,20.84
2022-08-19T08:01:42.118Z,20.84
2022-08-19T08:04:27.370Z,20.86
2022-08-19T08:07:14.226Z,20.88
2022-08-19T08:09:44.867Z,20.86
2022-08-19T08:12:33.664Z,20.86
2022-08-19T08:15:05.410Z,20.85
2022-08-19T08:17:49.821Z,20.86
2022-08-19T08:20:20.512Z,20.88
2022-08-19T08:23:07.823Z,20.91
2022-08-19T08:25:37.307Z,20.93
2022-08-19T08:28:06.276Z,20.92
2022-08-19T08:30:36.706Z,20.92
2022-08-19T08:33:04.914Z,20.90
2022-08-19T08:35:32.669Z,20.91
2022-08-19T08:38:02.991Z,20.88
2022-08-19T08:40:35.366Z,20.89
2022-08-19T08:43:11.319Z,20.90
2022-08-19T08:45:53.620Z,20.91
2022-08-19T08:48:26.831Z,20.93
2022-08-19T08:50:58.114Z,20.94
2022-08-19T08:53:31.065Z,20.94
2022-08-19T08:56:03.338Z,20.95
2022-08-19T08:58:43.125Z,20.94
2022-08-19T09:01:12.607Z,20.95
2022-08-19T09:03:42.816Z,20.96
2022-08-19T09:06:16.973Z,20.98
2022-08-19T09:08:56.789Z,21.00
2022-08-19T09:11:44.544Z,21.03
2022-08-19T09:14:47.402Z,21.05
2022-08-19T09:17:10.620Z,21.05
2022-08-19T09:19:51.590Z,21.06
2022-08-19T09:22:25.672Z,21.09
2022-08-19T09:24:56.604Z,21.07
2022-08-19T09:27:42.310Z,21.05
2022-08-19T09:30:16.768Z,21.05
2022-08-19T09:32:45.560Z,21.05
2022-08-19T09:35:15.861Z,21.06
2022-08-19T09:37:44.617Z,21.07
2022-08-19T09:40:15.340Z,21.07
2022-08-19T09:42:50.080Z,21.08
2022-08-19T09:45:22.612Z,21.10
2022-08-19T09:47:51.987Z,21.11
2022-08-19T09:50:21.826Z,21.11
2022-08-19T09:52:53.969Z,21.10
2022-08-19T09:55:24.450Z,21.09
2022-08-19T09:57:59.832Z,21.08
2022-08-19T10:00:27.389Z,21.09
2022-08-19T10:02:54.882Z,21.07
2022-08-19T10:05:42.292Z,21.07
2022-08-19T10:08:13.528Z,21.05
2022-08-19T10:10:46.657Z,21.03
2022-08-19T10:13:16.031Z,21.01
2022-08-19T10:15:47.548Z,21.01
2022-08-19T10:18:17.654Z,21.02
2022-08-19T10:20:46.620Z,21.03
2022-08-19T10:23:20.056Z,21.03
2022-08-19T10:25:49.690Z,21.03
2022-08-19T10:28:19.530Z,21.04
2022-08-19T10:30:48.752Z,21.05
2022-08-19T10:33:36.514Z,21.05
2022-08-19T10:36:05.506Z,21.04
2022-08-19T10:38:33.185Z,21.04
2022-08-19T10:41:08.906Z,21.04
2022-08-19T10:43:38.169Z,21.05
2022-08-19T10:46:09.511Z,21.05
2022-08-19T10:48:41.413Z,21.06
2022-08-19T10:51:26.396Z,21.07
2022-08-19T10:53:55.420Z,21.09
2022-08-19T10:56:42.266Z,21.11
2022-08-19T10:59:09.858Z,21.11
2022-08-19T11:01:38.466Z,21.11
2022-08-19T11:04:09.863Z,21.11
2022-08-19T11:06:39.349Z,21.13
2022-08-19T11:09:07.383Z,21.12
2022-08-19T11:11:41.101Z,21.11
2022-08-19T11:14:09.520Z,21.09
2022-08-19T11:16:42.448Z,21.06
2022-08-19T11:19:11.459Z,21.04
2022-08-19T11:21:41.333Z,21.03
2022-08-19T11:24:12.032Z,21.02
2022-08-19T11:26:42.347Z,21.01
2022-08-19T11:29:13.589Z,21.03
2022-08-19T11:31:42.986Z,21.01
2022-08-19T11:34:12.909Z,21.01
2022-08-19T11:36:43.513Z,21.02
2022-08-19T11:39:12.289Z,21.00
2022-08-19T11:41:41.595Z,20.97
2022-08-19T11:44:09.559Z,20.96
2022-08-19T11:46:38.508Z,20.94
2022-08-19T11:49:13.214Z,20.92
2022-08-19T11:51:42.969Z,20.89
2022-08-19T11:54:10.820Z,20.88
2022-08-19T11:56:39.157Z,20.87
2022-08-19T11:59:12.798Z,20.83
2022-08-19T12:01:43.546Z,20.79
2022-08-19T12:04:11.817Z,20.77
2022-08-19T12:06:42.150Z,20.74
2022-08-19T12:09:11.431Z,20.72
2022-08-19T12:11:40.310Z,20.69
2022-08-19T12:14:14.676Z,20.66
2022-08-19T12:16:49.220Z,20.67
2022-08-19T12:19:22.213Z,20.65
2022-08-19T12:21:50.919Z,20.65
2022-08-19T12:24:23.772Z,20.65
2022-08-19T12:26:52.867Z,20.64
2022-08-19T12:29:29.495Z,20.64
2022-08-19T12:32:01.499Z,20.63
2022-08-19T12:34:31.759Z,20.61
2022-08-19T12:36:59.362Z,20.58
2022-08-19T12:39:27.488Z,20.56
2022-08-19T12:41:55.225Z,20.56
2022-08-19T12:44:29.449Z,20.57
2022-08-19T12:47:00.226Z,20.55
2022-08-19T12:49:54.161Z,20.52
2022-08-19T12:52:19.912Z,20.52
2022-08-19T12:54:54.491Z,20.50
2022-08-19T12:57:23.723Z,20.47
2022-08-19T13:00:01.652Z,20.46
2022-08-19T13:02:33.115Z,20.44
2022-08-19T13:05:10.107Z,20.42
2022-08-19T13:07:38.167Z,20.41
2022-08-19T13:10:06.857Z,20.41
2022-08-19T13:12:34.498Z,20.38
2022-08-19T13:15:03.466Z,20.36
2022-08-19T13:17:39.198Z,20.35
2022-08-19T13:20:08.594Z,20.34
2022-08-19T13:22:36.570Z,20.34
2022-08-19T13:25:04.741Z,20.35
2022-08-19T13:27:32.284Z,20.35
2022-08-19T13:30:17.644Z,20.34
2022-08-19T13:33:04.394Z,20.34
2022-08-19T13:35:31.900Z,20.33
2022-08-19T13:37:59.590Z,20.31
2022-08-19T13:40:28.256Z,20.29
2022-08-19T13:42:57.066Z,20.29
2022-08-19T13:45:26.738Z,20.29
2022-08-19T13:47:59.769Z,20.28
2022-08-19T13:50:30.213Z,20.26
2022-08-19T13:52:58.016Z,20.26
2022-08-19T13:55:26.838Z,20.27
2022-08-19T13:57:55.152Z,20.28
2022-08-19T14:00:25.673Z,20.28
2022-08-19T14:02:56.660Z,20.26
2022-08-19T14:05:25.433Z,20.28
2022-08-19T14:07:53.649Z,20.31
2022-08-19T14:10:22.145Z,20.32
2022-08-19T14:12:49.743Z,20.36
2022-08-19T14:15:18.009Z,20.36
2022-08-19T14:17:47.607Z,20.38
2022-08-19T14:20:18.346Z,20.43
2022-08-19T14:22:47.877Z,20.42
2022-08-19T14:25:18.458Z,20.42
2022-08-19T14:27:46.097Z,20.40
2022-08-19T14:30:16.443Z,20.37
2022-08-19T14:32:45.215Z,20.32
2022-08-19T14:35:15.218Z,20.28
2022-08-19T14:37:46.291Z,20.27
2022-08-19T14:40:15.595Z,20.28
2022-08-19T14:42:44.021Z,20.31
2022-08-19T14:45:13.266Z,20.35
2022-08-19T14:47:41.394Z,20.37
2022-08-19T14:50:17.822Z,20.38
2022-08-19T14:52:48.975Z,20.41
2022-08-19T14:55:18.124Z,20.42
2022-08-19T14:57:46.729Z,20.42
2022-08-19T15:00:15.848Z,20.45
2022-08-19T15:02:45.122Z,20.41
2022-08-19T15:05:13.535Z,20.41
2022-08-19T15:07:41.837Z,20.40
2022-08-19T15:10:13.789Z,20.39
2022-08-19T15:12:43.465Z,20.36
2022-08-19T15:15:14.454Z,20.38
2022-08-19T15:17:45.432Z,20.41
2022-08-19T15:20:17.997Z,20.42
2022-08-19T15:22:45.654Z,20.42
2022-08-19T15:25:19.408Z,20.40
2022-08-19T15:27:47.131Z,20.41
2022-08-19T15:30:22.189Z,20.43
2022-08-19T15:32:50.628Z,20.47
2022-08-19T15:35:19.300Z,20.50
2022-08-19T15:37:47.090Z,20.53
2022-08-19T15:40:16.174Z,20.54
2022-08-19T15:42:44.678Z,20.55
2022-08-19T15:45:14.026Z,20.49
2022-08-19T15:47:42.363Z,20.50
2022-08-19T15:50:13.855Z,20.53
2022-08-19T15:52:49.971Z,20.55
2022-08-19T15:55:32.689Z,20.55
2022-08-19T15:58:28.920Z,20.52
2022-08-19T16:01:15.714Z,20.49
2022-08-19T16:04:01.626Z,20.50
2022-08-19T16:06:29.522Z,20.50
2022-08-19T16:08:59.401Z,20.54
2022-08-19T16:11:39.518Z,20.53
2022-08-19T16:14:09.459Z,20.55
2022-08-19T16:16:38.398Z,20.58
2022-08-19T16:19:10.140Z,20.57
2022-08-19T16:21:40.440Z,20.55
2022-08-19T16:24:10.901Z,20.55
2022-08-19T16:26:41.904Z,20.54
2022-08-19T16:29:13.129Z,20.54
2022-08-19T16:31:42.311Z,20.58
2022-08-19T16:34:10.700Z,20.58
2022-08-19T16:36:42.103Z,20.61
2022-08-19T16:39:10.953Z,20.63
2022-08-19T16:41:39.336Z,20.61
2022-08-19T16:44:10.000Z,20.59
2022-08-19T16:46:38.834Z,20.56
2022-08-19T16:49:07.765Z,20.56
2022-08-19T16:51:35.416Z,20.56
2022-08-19T16:54:03.424Z,20.54
2022-08-19T16:56:32.189Z,20.50
2022-08-19T16:59:00.568Z,20.48
2022-08-19T17:01:30.037Z,20.44
2022-08-19T17:03:58.453Z,20.39
2022-08-19T17:06:29.671Z,20.33
2022-08-19T17:08:59.402Z,20.26
2022-08-19T17:11:28.387Z,20.21
2022-08-19T17:13:56.785Z,20.13
2022-08-19T17:16:27.589Z,20.05
2022-08-19T17:18:59.001Z,20.00
2022-08-19T17:21:28.985Z,19.95
2022-08-19T17:23:57.776Z,19.97
2022-08-19T17:26:26.287Z,19.94
2022-08-19T17:28:56.597Z,19.92
2022-08-19T17:31:27.296Z,19.90
2022-08-19T17:33:58.174Z,19.88
2022-08-19T17:36:27.145Z,19.83
2022-08-19T17:38:57.653Z,19.80
2022-08-19T17:41:26.162Z,19.76
2022-08-19T17:43:54.439Z,19.72
2022-08-19T17:46:22.282Z,19.71
2022-08-19T17:48:54.557Z,19.71
2022-08-19T17:51:24.534Z,19.72
2022-08-19T17:53:54.024Z,19.71
2022-08-19T17:56:22.217Z,19.70
2022-08-19T17:58:59.925Z,19.69
2022-08-19T18:01:35.494Z,19.70
2022-08-19T18:04:17.125Z,19.71
2022-08-19T18:06:53.077Z,19.72
2022-08-19T18:09:23.833Z,19.75
2022-08-19T18:11:52.574Z,19.83
2022-08-19T18:14:20.868Z,19.87
2022-08-19T18:16:48.461Z,19.85
2022-08-19T18:19:16.021Z,19.86
2022-08-19T18:21:43.562Z,19.84
2022-08-19T18:24:12.656Z,19.85
2022-08-19T18:26:40.346Z,19.83
2022-08-19T18:29:09.231Z,19.81
2022-08-19T18:31:36.875Z,19.84
2022-08-19T18:34:04.448Z,19.86
2022-08-19T18:36:52.859Z,19.90
2022-08-19T18:39:39.889Z,19.95
2022-08-19T18:42:32.722Z,19.93
2022-08-19T18:45:18.139Z,19.95
2022-08-19T18:48:03.397Z,19.95
2022-08-19T18:50:30.987Z,19.92
2022-08-19T18:52:58.514Z,19.91
2022-08-19T18:55:29.219Z,19.89
2022-08-19T18:57:56.941Z,19.89
2022-08-19T19:00:25.224Z,19.87
2022-08-19T19:02:54.530Z,19.84
2022-08-19T19:05:22.701Z,19.82
2022-08-19T19:07:50.549Z,19.81
2022-08-19T19:10:18.237Z,19.82
2022-08-19T19:12:47.848Z,19.80
2022-08-19T19:15:15.362Z,19.76
2022-08-19T19:17:42.893Z,19.72
2022-08-19T19:20:10.536Z,19.68
2022-08-19T19:22:38.416Z,19.64
2022-08-19T19:25:08.184Z,19.63
2022-08-19T19:27:35.723Z,19.61
2022-08-19T19:30:05.348Z,19.61
2022-08-19T19:32:39.259Z,19.59
2022-08-19T19:35:12.004Z,19.60
2022-08-19T19:37:39.872Z,19.60
2022-08-19T19:40:08.180Z,19.59
2022-08-19T19:42:36.255Z,19.61
2022-08-19T19:45:06.444Z,19.62
2022-08-19T19:47:35.715Z,19.62
2022-08-19T19:50:14.279Z,19.61
2022-08-19T19:52:45.829Z,19.63
2022-08-19T19:55:18.489Z,19.63
2022-08-19T19:57:47.603Z,19.62
2022-08-19T20:00:21.068Z,19.63
2022-08-19T20:02:50.842Z,19.63
2022-08-19T20:05:21.768Z,19.63
2022-08-19T20:08:08.835Z,19.65
2022-08-19T20:10:40.451Z,19.65
2022-08-19T20:13:12.524Z,19.65
2022-08-19T20:15:43.816Z,19.64
2022-08-19T20:18:17.819Z,19.64
2022-08-19T20:20:50.387Z,19.65
2022-08-19T20:23:20.927Z,19.63
2022-08-19T20:25:50.487Z,19.64
2022-08-19T20:31:01.615Z,19.61
2022-08-19T20:33:32.262Z,19.61
2022-08-19T20:36:00.587Z,19.59
2022-08-19T20:38:30.253Z,19.60
2022-08-19T20:41:00.112Z,19.59
2022-08-19T20:43:33.781Z,19.59
2022-08-19T20:46:09.841Z,19.61
2022-08-19T20:48:42.703Z,19.60
2022-08-19T20:51:16.125Z,19.57
2022-08-19T20:53:48.049Z,19.52
2022-08-19T20:56:33.004Z,19.50
2022-08-19T20:59:11.074Z,19.50
2022-08-19T21:01:49.512Z,19.48
2022-08-19T21:04:27.598Z,19.49
2022-08-19T21:07:09.546Z,19.48
2022-08-19T21:09:41.935Z,19.50
2022-08-19T21:12:18.709Z,19.50
2022-08-19T21:15:02.565Z,19.54
2022-08-19T21:17:41.972Z,19.54
2022-08-19T21:20:20.368Z,19.52
2022-08-19T21:22:53.782Z,19.50
2022-08-19T21:25:27.939Z,19.49
2022-08-19T21:28:06.167Z,19.50
2022-08-19T21:30:38.724Z,19.52
2022-08-19T21:33:14.926Z,19.56
2022-08-19T21:35:53.418Z,19.61
2022-08-19T21:38:26.422Z,19.62
2022-08-19T21:41:03.591Z,19.63
2022-08-19T21:43:40.334Z,19.63
2022-08-19T21:46:12.775Z,19.64
2022-08-19T21:49:02.548Z,19.64
2022-08-19T21:51:39.938Z,19.61
2022-08-19T21:54:17.374Z,19.58
2022-08-19T21:56:52.794Z,19.55
2022-08-19T21:59:26.359Z,19.53
2022-08-19T22:02:15.604Z,19.52
2022-08-19T22:04:53.767Z,19.49
2022-08-19T22:07:40.074Z,19.46
2022-08-19T22:10:20.280Z,19.42
2022-08-19T22:12:56.335Z,19.40
2022-08-19T22:15:31.649Z,19.44
2022-08-19T22:18:18.233Z,19.45
2022-08-19T22:20:56.378Z,19.45
2022-08-19T22:23:30.014Z,19.41
2022-08-19T22:26:05.162Z,19.38
2022-08-19T22:28:39.497Z,19.35
2022-08-19T22:31:19.917Z,19.34
2022-08-19T22:33:53.823Z,19.33
2022-08-19T22:36:33.157Z,19.33
2022-08-19T22:39:13.886Z,19.32
2022-08-19T22:41:52.568Z,19.32
2022-08-19T22:44:26.447Z,19.32
2022-08-19T22:47:11.024Z,19.34
2022-08-19T22:49:49.776Z,19.38
2022-08-19T22:52:23.360Z,19.35
2022-08-19T23:11:19.751Z,19.42
2022-08-19T23:13:48.049Z,19.40
2022-08-19T23:16:15.860Z,19.39
2022-08-19T23:18:45.438Z,19.38
2022-08-19T23:21:13.427Z,19.35
2022-08-19T23:23:44.752Z,19.37
2022-08-19T23:26:31.664Z,19.37
2022-08-19T23:29:41.220Z,19.40
2022-08-19T23:32:18.746Z,19.41
2022-08-19T23:34:53.536Z,19.43
2022-08-19T23:37:28.882Z,19.45
2022-08-19T23:40:07.715Z,19.48
2022-08-19T23:42:43.576Z,19.49
2022-08-19T23:45:23.667Z,19.56
2022-08-19T23:48:04.033Z,19.55
2022-08-19T23:50:38.944Z,19.53
2022-08-19T23:53:15.817Z,19.50
2022-08-19T23:55:53.034Z,19.49
2022-08-19T23:58:30.020Z,19.49
